KDIK/DIK METAR and TAF weather

Enter ICAO airport designator
Station Type Date Time Source
KDIK METAR 2020/04/10 17:56 UTC NOAA

KDIK 101756Z AUTO VRB03KT 10SM CLR 12/M10 A2978 RMK AO2 SLP100 T01171100 10117 21039 56010


Station Type Date Time Source
KDIK Decoded METAR 2020/04/10 17:56 UTC NOAA

THEODORE ROOSEVELT REGIONAL, ND, United States (KDIK) 46-48N 102-48W 788M
Apr 10, 2020 - 01:56 PM EDT / 2020.04.10 1756 UTC
Wind: Variable at 3 MPH (3 KT):0
Visibility: 10 mile(s):0
Sky conditions: clear
Temperature: 53.1 F (11.7 C)
Dew Point: 14.0 F (-10.0 C)
Relative Humidity: 20%
Pressure (altimeter): 29.78 in. Hg (1008 hPa)
Pressure tendency: 0.03 inches (1.0 hPa) lower than three hours ago
ob: KDIK 101756Z AUTO VRB03KT 10SM CLR 12/M10 A2978 RMK AO2 SLP100 T01171100 10117 21039 56010
cycle: 18

Station Type Date Time Source
KDIK TAF 2020/04/10 18:40 UTC NOAA

TAF KDIK 101738Z 1018/1118 16005KT P6SM SCT150
FM102100 36010KT P6SM BKN070
FM110500 03015G25KT P6SM VCSH BKN020
FM110800 06012KT P6SM VCSH OVC015
FM111400 03014KT P6SM VCSH OVC030

Example: see airport list